x

9444090 - Port Angeles, Wa (ptaw1) Weather Station

12:36 - Sat 3rd Dec 2016 All times are PST. -8 hours from GMT.

  • Wind
    2mph, 6mph gusts
  • Sea Temp 51°f
  • Ar Temp 51°f
  • Sea Pressure 1023.5mb
  • 9444090 - Port Angeles, Wa
  • 9444090 - Port Angeles, Wa

More Historic Weather Station data

Upgrade to MSW Pro to gain access to the past 30 days of data for over 8000 Wavebouys and Weather Stations around the globe.

Join Pro

Comparision Forecast

View Surf forecast
   
Sáb 12/03 12:36 2 6 mph 1023.5mb 51f 51f
12:30 6 8 mph 1023.7mb 51f 51f
12:24 6 7 mph 1023.8mb 51f 51f
12:18 2 3 mph 1024.1mb 51f 51f
12:12 2 5 mph 1024.1mb 51f 51f
12:06 5 6 mph 1024mb 51f 52f
12:00 3
mph
1023.9mb 51f 52f
11:36 1 2 mph 1024.3mb 51f 51f
11:30  -  mph 1024.1mb 51f 51f
11:24  -  1 mph 1024mb 51f 50f
11:18 1 5 mph 1024.1mb 51f 49f
11:12 3 6 mph 1024mb 51f 49f
11:06 5
mph
1024.2mb 51f 49f
11:00 2 3 mph - - -
10:36 1 2 mph 1024.5mb 51f 49f
10:30  -  5 mph 1024.6mb 51f 49f
10:24 3 6 mph 1024.6mb 51f 48f
10:18 1 5 mph 1024.7mb 51f 48f
10:12 3 8 mph 1024.7mb 51f 47f
10:06 3 7 mph 1024.8mb 51f 47f
10:00  -  1 mph 1024.8mb 51f 46f
9:36 2 5 mph 1023.8mb 51f 45f
9:30 5 7 mph 1023.7mb 51f 45f
9:24 6
mph
1024.1mb 51f 46f
9:18 3 5 mph 1024.4mb 51f 46f
9:12 2 8 mph 1024.4mb 51f 47f
9:06 7 8 mph 1024.6mb 51f 46f
9:00 5 6 mph 1024.5mb 51f 45f
8:36 2 6 mph 1024mb 51f 44f
8:30 5 7 mph 1023.8mb 51f 44f
8:24 5 6 mph 1023.8mb 51f 44f
8:18 5 7 mph 1023.7mb 51f 45f
8:12 6 8 mph 1023.3mb 51f 45f
8:06 6 8 mph 1023.8mb 51f 46f
8:00 5 8 mph 1024mb 51f 46f
7:36  -  2 mph 1024.2mb 51f 45f
7:30 1 5 mph 1024mb 51f 45f
7:24 3 6 mph 1023.9mb 51f 43f
7:18 2 3 mph 1024mb 51f 43f
7:12 2 5 mph 1024.1mb 51f 42f
7:06 2 5 mph 1023.9mb 51f 42f
7:00 3
mph
1023.9mb 51f 42f
6:36 2 9 mph 1023.8mb 51f 46f
6:30 3 5 mph 1023.9mb 51f 44f
6:24 2 5 mph 1023.7mb 51f 44f
6:18 3 6 mph 1023.4mb 51f 44f
6:12 3 8 mph 1023.2mb 51f 47f
6:06 6 10 mph 1023.4mb 51f 48f
6:00 6 9 mph 1023.5mb 51f 46f
5:36 6
mph
1023.5mb 51f 43f
5:30 3 5 mph 1023.4mb 51f 43f
5:24 3 5 mph 1023.3mb 51f 44f
5:18 5 6 mph 1023.3mb 51f 45f
5:12 3 6 mph 1023.3mb 51f 46f
5:06 6 10 mph 1023.4mb 51f 46f
5:00 6 8 mph 1023.5mb 51f 45f
4:36 5 7 mph 1023.5mb 51f 45f
4:30 6
mph
1023.4mb 51f 46f
4:24 5 8 mph 1023.5mb 51f 46f
4:18 6 9 mph 1023.4mb 51f 47f
4:12 6 7 mph 1023.5mb 51f 47f
4:06 7 13 mph 1023.5mb 51f 48f
4:00 5 10 mph 1023.5mb 51f 47f
3:36 8 13 mph 1023.5mb 51f 48f
3:30 7 13 mph 1023.5mb 51f 48f
3:24 7 10 mph 1023.5mb 51f 48f
3:18 8 10 mph 1023.3mb 51f 48f
3:12 8 10 mph 1023.3mb 51f 48f
3:06 9 11 mph 1023.3mb 51f 48f
3:00 8 10 mph 1023.2mb 51f 48f
2:36 8 10 mph 1023mb 51f 48f
2:30 7 9 mph 1023mb 51f 48f
2:24 6 8 mph 1022.8mb 51f 48f
2:18 7 10 mph 1022.9mb 51f 48f
2:12 8 11 mph 1022.9mb 51f 48f
2:06 9 11 mph 1022.8mb 51f 48f
2:00 9 14 mph 1022.7mb 51f 48f
1:36 8 11 mph 1022.5mb 51f 48f
1:30 8 10 mph 1022.6mb 51f 48f
1:24 5 10 mph 1022.5mb 51f 48f
1:18 10 17 mph 1022.5mb 51f 49f
1:12 13 17 mph 1022.4mb 51f 49f
1:06 9 13 mph 1022.4mb 51f 48f
1:00 7 11 mph 1022.4mb 51f 48f
12:36 8 13 mph 1022.3mb 51f 49f
12:30 9 13 mph 1022.1mb 51f 49f
12:24 9 16 mph 1022mb 51f 49f
12:18 8 13 mph 1022.1mb 51f 49f
12:12 6 11 mph 1022.1mb 51f 48f
12:06 6 10 mph 1022.1mb 51f 48f
12:00 8 11 mph 1022mb 51f 49f
Sex 12/02 11:36 7 11 mph 1021.7mb 51f 48f
11:30 3 7 mph 1021.4mb 51f 48f
11:24 5 8 mph 1021.3mb 51f 48f
11:18 6 10 mph 1021.3mb 51f 48f
11:12 7 14 mph 1021.1mb 51f 48f
11:06 8 16 mph 1021.2mb 51f 48f
11:00 11 16 mph 1021.1mb 51f 48f
10:36 8 11 mph 1020.8mb 51f 48f
10:30 10 14 mph 1020.7mb 51f 48f
10:24 10 14 mph 1020.6mb 51f 49f
10:18 10 14 mph 1020.6mb 51f 49f
10:12 10 17 mph 1020.4mb 51f 49f
10:06 9 14 mph 1020.4mb 51f 49f
10:00 10 14 mph 1020.4mb 51f 49f
9:36 11 15 mph 1019.8mb 51f 49f
9:30 7 11 mph 1019.8mb 51f 49f
9:24 10 16 mph 1019.7mb 51f 49f
9:18 10 14 mph 1019.8mb 51f 49f
9:12 13 18 mph 1019.9mb 51f 49f
9:06 10 14 mph 1019.9mb 51f 49f
9:00 13 17 mph 1019.8mb 51f 49f
8:36 9 15 mph 1019.7mb 51f 49f
8:30 13 18 mph 1019.7mb 51f 49f
8:24 13 17 mph 1019.7mb 51f 49f
8:18 14 20 mph 1019.5mb 51f 49f
8:12 14 18 mph 1019.4mb 51f 49f
8:06 14 17 mph 1019.3mb 51f 49f
8:00 11 17 mph 1019.1mb 51f 49f
7:36 16 21 mph 1018.6mb 51f 50f
7:30 13 20 mph 1018.6mb 51f 49f
7:24 13 18 mph 1018.6mb 51f 49f
7:18 13 17 mph 1018.5mb 51f 49f
7:12 15 20 mph 1018.6mb 51f 49f
7:06 15 18 mph 1018.5mb 51f 49f
7:00 10 14 mph 1018.4mb 51f 49f
6:36 7 10 mph 1018.3mb 51f 49f
6:30 9 13 mph 1018.1mb 51f 49f
6:24 8 13 mph 1018.1mb 51f 49f
6:18 7 16 mph 1018mb 51f 49f
6:12 10 15 mph 1017.9mb 51f 50f
6:06 9 16 mph 1018mb 51f 49f
6:00 11 17 mph 1017.9mb 51f 50f
5:36 14 22 mph 1017.4mb 51f 50f
5:30 11 17 mph 1017.3mb 51f 50f
5:24 8 16 mph 1017.4mb 51f 50f
5:18 13 20 mph 1017.4mb 51f 50f
5:12 10 16 mph 1017.3mb 51f 50f
5:06 9 15 mph 1017.3mb 51f 50f
5:00 10 17 mph 1017.4mb 51f 50f
4:36 5 8 mph 1017.5mb 51f 49f
4:30 6 8 mph 1017.7mb 51f 49f
4:24 6 10 mph 1017.6mb 51f 49f
4:18 6 11 mph 1017.6mb 51f 49f
4:12 3 6 mph 1017.8mb 51f 49f
4:06 2 9 mph 1017.8mb 51f 49f
4:00 6 9 mph 1017.8mb 51f 48f
3:30 3 5 mph 1017.5mb 51f 48f
3:24 3 5 mph 1017.3mb 51f 48f
3:18 5 6 mph 1017.2mb 51f 48f
3:12 5 6 mph 1017.4mb 51f 49f
3:06 3 5 mph 1017.7mb 51f 49f
3:00 2 6 mph 1017.6mb 51f 49f
12:36 3 6 mph 1017.5mb 51f 49f
12:30 5 6 mph 1017.6mb 51f 49f
12:24 3 5 mph 1017.5mb 51f 49f
12:18 3 5 mph 1017.5mb 51f 49f
12:12 6
mph
1017.6mb 51f 49f
12:06 3 6 mph 1017.8mb 51f 49f
12:00 6
mph
1018mb 51f 49f
11:54 2 6 mph 1018.2mb 51f 49f
11:48 2 3 mph 1018.3mb 51f 49f
11:36 3 5 mph 1018.6mb 51f 49f
11:30 1 3 mph 1018.6mb 51f 50f
11:24 2
mph
1018.5mb 51f 50f
11:18  -  3 mph 1018.7mb 51f 50f
11:12 3 5 mph 1018.7mb 51f 49f
11:06 5 6 mph 1018.7mb 51f 48f
11:00 5 7 mph 1018.9mb 51f 48f
10:54 3 5 mph 1019.2mb 51f 48f
10:48 3 5 mph 1019.5mb 51f 48f
10:36  -  2 mph 1019.8mb 51f 47f
10:30  -  3 mph 1019.8mb 51f 47f
10:24 2 3 mph 1020mb 51f 47f
10:18 2 5 mph 1020.1mb 51f 47f
10:12 1 3 mph 1020.1mb 51f 47f
10:06 2 3 mph 1020.1mb 51f 47f
10:00 2 3 mph 1020.1mb 51f 47f
9:54  -  6 mph 1020.1mb 51f 46f
9:48 5 6 mph 1020.3mb 51f 46f
9:36 2 3 mph - 51f 46f
9:30 3 5 mph - 51f 45f
9:24 2 5 mph - 51f 45f
9:18 3 5 mph - 51f 45f
9:12 3 5 mph - 51f 45f
9:06 2 3 mph - 51f 45f
9:00 2 3 mph - 51f 45f
8:54 3 5 mph - 51f 44f
8:48 2 3 mph - 51f 44f
8:36 2 3 mph 1021.8mb 51f 44f
8:30 2 5 mph 1021.9mb 51f 44f
8:24 3 5 mph 1022mb 51f 44f
8:18 3 7 mph 1022.1mb 51f 43f
8:12 5 6 mph 1022.2mb 51f 44f
8:06 3 5 mph 1022.3mb 51f 44f
8:00 2 3 mph 1022.3mb 51f 44f
7:54 2 3 mph 1022.1mb 51f 44f
7:48 1 2 mph 1022.3mb 51f 44f
7:36 6 8 mph 1021.9mb 51f 43f
7:30 6 7 mph 1021.7mb 51f 43f
7:24 6 7 mph 1021.9mb 51f 43f
7:18 6 7 mph 1022.2mb 51f 43f
7:12 6
mph
1022.5mb 51f 43f
7:06 6
mph
1022.7mb 51f 44f
7:00 2 5 mph 1022.8mb 51f 44f
6:54 3 5 mph 1022.9mb 51f 45f
6:48 1 2 mph 1022.8mb 51f 43f
6:36 5 6 mph 1022.7mb 51f 43f
6:30 5 7 mph 1022.7mb 51f 43f
6:24 6 7 mph 1022.9mb 51f 43f
6:18 6 7 mph 1023mb 51f 43f
6:12 5 7 mph 1023mb 51f 43f
6:06 3 7 mph 1023mb 51f 43f
6:00 6 7 mph 1023.2mb 51f 43f
5:54 2 3 mph 1023.3mb 51f 43f
5:48 5 6 mph 1023.3mb 51f 43f
5:36 5
mph
1023.2mb 51f 43f
5:30 2 3 mph 1022.9mb 51f 43f
5:24 1 2 mph 1022.8mb 51f 42f
5:18 2 3 mph 1022.7mb 51f 42f
5:12 3 6 mph 1022.9mb 51f 43f
5:06 5 6 mph 1022.9mb 51f 42f
5:00 2 5 mph 1022.9mb 51f 42f
4:54 3 6 mph 1022.9mb 51f 43f
4:48 6
mph
1023.1mb 51f 42f
4:36 3
mph
1023.3mb 51f 43f
4:30 2 3 mph 1023.4mb 51f 43f
4:24 3
mph
1023.2mb 51f 43f
4:18 1 2 mph 1023.2mb 51f 43f
4:12 1 3 mph 1023.3mb 51f 43f
4:06 1 2 mph 1023.5mb 51f 43f
4:00 2 6 mph 1023.6mb 51f 42f
3:54 2 3 mph 1023.7mb 51f 42f
3:48 2 3 mph 1023.8mb 51f 43f
3:36 2 3 mph 1024.2mb 51f 43f
3:30 2 8 mph 1024.1mb 51f 43f
3:24 7 8 mph 1024mb 51f 42f
3:18 5 7 mph 1023.9mb 51f 42f
3:12 3
mph
1023.7mb 51f 42f
3:06 2 3 mph 1023.9mb 51f 42f
3:00 2 5 mph 1023.9mb 51f 42f
2:54 3 5 mph 1024.1mb 51f 42f
2:48 3 6 mph 1024.3mb 51f 42f
2:36 1 6 mph 1024.3mb 51f 42f
2:30 5 6 mph 1024.5mb 51f 42f
2:24 3 5 mph 1024.5mb 51f 42f
2:18 2 5 mph 1024.5mb 51f 42f
2:12 5 6 mph 1024.5mb 51f 42f
2:06 3 5 mph 1024.5mb 51f 42f
2:00 3 5 mph 1024.5mb 51f 42f
1:54 2 3 mph 1024.5mb 51f 41f
1:48 3
mph
1024.6mb 51f 42f
1:36 5 6 mph 1024.8mb 51f 41f
1:30 2 5 mph 1024.8mb 51f 42f
1:24 2 6 mph 1024.8mb 51f 42f
1:18 6
mph
1024.8mb 51f 42f
1:12 5 7 mph 1024.9mb 51f 41f
1:06 2 7 mph 1024.9mb 51f 41f
1:00 5 7 mph 1024.8mb 51f 41f
12:54 2 5 mph 1024.8mb 51f 41f
12:48 6
mph
1024.7mb 51f 41f
12:36 3 6 mph 1024.7mb 51f 41f
12:30 5 7 mph 1024.7mb 51f 41f
12:24 6 7 mph 1024.7mb 51f 41f
12:18 3 5 mph 1024.8mb 51f 41f
12:12 5 6 mph 1024.9mb 51f 41f
12:06 3
mph
1024.9mb 51f 41f
12:00 3 5 mph 1024.9mb 51f 41f
Qui 12/01 11:54 2 3 mph 1024.9mb 51f 41f
11:48 3 5 mph 1025mb 51f 41f
11:36 3
mph
1024.9mb 51f 41f
11:30 3 6 mph 1025mb 51f 41f
11:24 3 6 mph 1025.2mb 51f 41f
11:18 6 8 mph 1025.3mb 51f 41f
11:12 6 8 mph 1025.3mb 51f 41f
11:06 6 8 mph 1025.3mb 51f 41f
11:00 5 8 mph 1025.2mb 51f 41f
10:54 3 6 mph 1025.2mb 51f 41f
10:48 6 8 mph 1025.2mb 51f 41f
10:36 6 8 mph 1025.1mb 51f 41f
10:30 5 7 mph 1025.1mb 51f 41f
10:24 6 7 mph 1025mb 51f 41f
10:18 6 9 mph 1025mb 51f 41f
10:12 6 8 mph 1025mb 51f 41f
10:06 6 7 mph 1025mb 51f 41f
10:00 6 7 mph 1024.9mb 51f 41f
9:54 5 8 mph 1024.9mb 51f 41f
9:48 5 6 mph 1024.9mb 51f 41f
9:36 6 8 mph 1024.9mb 51f 42f
9:30 7 8 mph 1025mb 51f 42f
9:24 6 7 mph 1025.1mb 51f 42f
9:18 5 6 mph 1025.1mb 51f 42f
9:12 6 7 mph 1025.4mb 51f 42f
9:06 6 8 mph 1025.4mb 51f 42f
9:00 6 8 mph 1025.4mb 51f 42f
8:54 5 6 mph 1025.3mb 51f 43f
8:48 5 6 mph 1025.4mb 51f 42f
8:36 5
mph
1025.4mb 51f 43f
8:30 2
mph
1025.4mb 51f 43f
8:24 2 3 mph 1025.4mb 51f 43f
8:18 2
mph
1025.4mb 51f 44f
8:12 2 5 mph 1025.4mb 51f 44f
8:06 3 5 mph 1025.5mb 51f 44f
8:00 3
mph
1025.5mb 51f 44f
7:54 3 5 mph 1025.7mb 51f 44f
7:48 3 5 mph 1025.7mb 51f 44f
7:36  -  2 mph 1025.7mb 51f 44f
7:30  -  2 mph 1025.7mb 51f 44f
7:24 1 3 mph 1025.6mb 51f 44f
7:18 2 5 mph 1025.5mb 51f 44f
7:12 3 6 mph 1025.6mb 51f 45f
7:06 3 5 mph 1025.7mb 51f 45f
7:00 2 5 mph 1025.7mb 51f 44f
6:54 2 6 mph 1025.6mb 51f 44f
6:48 5 7 mph 1025.5mb 51f 43f
6:30 6 7 mph 1025.6mb 51f 43f
6:24 5 7 mph 1025.7mb 51f 43f
6:18 6 8 mph 1025.9mb 51f 44f
6:12 6 8 mph 1026mb 51f 44f
6:06 5 6 mph 1026mb 51f 44f
6:00 6
mph
1026mb 51f 44f
5:54 3 6 mph 1025.9mb 51f 44f
5:48 5 6 mph 1025.8mb 51f 44f
5:30 5 6 mph 1025.5mb 51f 45f
5:24 2 3 mph 1025.4mb 51f 45f
5:18 2 3 mph 1025.4mb 51f 45f
5:12 1 2 mph 1025.4mb 51f 46f
5:06 1 2 mph 1025.4mb 51f 46f
5:00  -  2 mph 1025.4mb 51f 46f
4:54  -  1 mph 1025.4mb 51f 47f
4:48  -  1 mph 1025.1mb 51f 47f
4:36 2 5 mph 1025.2mb 51f 48f
4:30 5 6 mph 1025.2mb 51f 48f
4:24 3 6 mph 1025.3mb 51f 48f
4:18 3 6 mph 1025.4mb 51f 48f
4:12 6 7 mph 1025.5mb 51f 48f
4:06 6
mph
1025.7mb 51f 48f
4:00 5 8 mph 1025.6mb 51f 48f
3:54 7 8 mph 1025.5mb 51f 49f
3:48 7 9 mph 1025.2mb 51f 49f
3:36 7 10 mph 1025.1mb 51f 49f
3:30 8 9 mph 1025.2mb 51f 49f
3:24 8 10 mph 1025.1mb 51f 49f
3:18 8 9 mph 1025.1mb 51f 49f
3:12 8 9 mph 1025mb 51f 49f
3:06 8 9 mph 1025mb 51f 48f
3:00 6 8 mph 1025.1mb 51f 48f
2:54 7 8 mph 1025.1mb 51f 49f
2:48 7 9 mph 1025mb 51f 48f
2:36 5 6 mph 1025mb 51f 48f
2:30 5 6 mph 1024.9mb 51f 48f
2:24 6
mph
1024.9mb 51f 48f
2:18 5 6 mph 1025.1mb 51f 48f
2:12 3 5 mph 1025.2mb 51f 48f
2:06 3 5 mph 1025.2mb 51f 48f
2:00 5 6 mph 1025.1mb 51f 48f
1:54 5 7 mph 1025mb 51f 48f
1:48 7 8 mph 1025mb 51f 48f
1:36 7 8 mph 1025mb 51f 48f
1:30 7 8 mph 1025mb 51f 48f
1:24 6 8 mph 1025.1mb 51f 48f
1:18 7 8 mph 1025.1mb 51f 48f
1:12 8 9 mph 1025mb 51f 49f
1:06 6 8 mph 1025mb 51f 48f
1:00 5 7 mph 1025mb 51f 49f
12:54 5 8 mph 1024.8mb 51f 49f
12:48 3 5 mph 1024.7mb 51f 48f
12:36 3 7 mph 1024.7mb 51f 48f
12:30 7 8 mph 1024.7mb 51f 47f
12:24 5 8 mph 1024.8mb 51f 48f
12:18 6 8 mph 1024.7mb 51f 48f
12:12 6 8 mph 1024.6mb 51f 48f
12:06 7 11 mph 1024.6mb 51f 49f
12:00 8 10 mph 1024.6mb 51f 49f
11:54 7 9 mph 1024.6mb 51f 49f
11:48 6 8 mph 1024.6mb 51f 49f
11:36 5 8 mph 1024.6mb 51f 49f
11:30 6 8 mph 1024.5mb 51f 49f
11:24 7 10 mph 1024.6mb 51f 49f
11:18 6 9 mph 1024.6mb 51f 48f
11:12 7 9 mph 1024.7mb 51f 48f
11:06 6 10 mph 1024.6mb 51f 48f
11:00 7 10 mph 1024.7mb 51f 47f
10:54 7 13 mph 1024.6mb 51f 47f
10:48 7 13 mph 1024.6mb 51f 48f
9:54 6 10 mph 1023.9mb 51f 48f
9:48 7 9 mph 1024mb 51f 48f
9:36 7 10 mph 1023.9mb 51f 48f
9:30 5 10 mph 1023.8mb 51f 48f
9:24 6 11 mph 1023.9mb 51f 48f
9:18 6 9 mph 1023.8mb 51f 48f
9:12 5 11 mph 1023.8mb 51f 48f
9:06 6 11 mph 1023.8mb 51f 48f
9:00 7 13 mph 1023.7mb 51f 47f
8:54 7 10 mph 1023.8mb 51f 47f
8:48 6 11 mph 1023.7mb 51f 46f
8:36 6 9 mph 1023.6mb 51f 46f
8:30 6 8 mph 1023.5mb 51f 46f
8:24 6 8 mph 1023.5mb 51f 46f
8:18 6 14 mph 1023.4mb 51f 47f
8:12 5 7 mph 1023.4mb 51f 46f
8:06 3 10 mph 1023.3mb 51f 46f
8:00 7 13 mph 1023.4mb 51f 46f
7:54 6 10 mph 1023.3mb 51f 46f
7:48 7 13 mph 1023.4mb 51f 46f
7:36 8 11 mph 1023.3mb 51f 47f
7:30 7 13 mph 1023.3mb 51f 46f
7:24 7 11 mph 1023.2mb 51f 46f
7:18 7 13 mph 1023.2mb 51f 46f
7:12 7 13 mph 1023.2mb 51f 46f
7:06 6 10 mph 1023.1mb 51f 46f
7:00 7 11 mph 1023.1mb 51f 46f
6:54 8 17 mph 1023mb 51f 46f
6:48 7 14 mph 1022.9mb 51f 46f
6:36 6 13 mph 1022.7mb 51f 44f
6:30 7 13 mph 1022.5mb 51f 44f
6:24 8 11 mph 1022.5mb 51f 45f
6:18 7 10 mph 1022.4mb 51f 46f
6:12 7 14 mph 1022.4mb 51f 46f
6:06 7 10 mph 1022.4mb 51f 46f
6:00 9 14 mph 1022.4mb 51f 46f
5:54 7 11 mph 1022.3mb 51f 46f
5:48 7 11 mph 1022.2mb 51f 46f
5:36 8 13 mph 1022.2mb 51f 46f
5:30 8 16 mph 1022.2mb 51f 47f
5:24 7 11 mph 1022.3mb 51f 46f
5:18 7 13 mph 1022.3mb 51f 47f
5:12 8 13 mph 1022.3mb 51f 47f
5:06 7 11 mph 1022.2mb 51f 46f
5:00 8 14 mph 1022.3mb 51f 47f
4:54 8 14 mph 1022.3mb 51f 47f
4:48 9 13 mph 1022.3mb 51f 47f
4:36 7 14 mph 1022.3mb 51f 47f
4:30 6 14 mph 1022.4mb 51f 47f
4:24 6 11 mph 1022.4mb 51f 46f
4:18 7 11 mph 1022.3mb 51f 47f
4:12 10 15 mph 1022.2mb 51f 47f
4:06 9 14 mph 1022.3mb 51f 47f
4:00 8 14 mph 1022.3mb 51f 47f
3:54 8 15 mph 1022.2mb 51f 48f
3:48 9 17 mph 1022.2mb 51f 48f
3:36 8 15 mph 1022.3mb 51f 47f
3:30 7 10 mph 1022.2mb 51f 47f
3:24 8 13 mph 1022.2mb 51f 47f
3:18 10 14 mph 1022.2mb 51f 47f
3:12 8 14 mph 1022.2mb 51f 47f
3:06 8 14 mph 1022.2mb 51f 47f
3:00 9 15 mph 1022.2mb 51f 47f
2:54 9 15 mph 1022.2mb 51f 47f
2:48 8 14 mph 1022.2mb 51f 46f
2:36 8 13 mph 1022.2mb 51f 46f
2:30 7 11 mph 1022.1mb 51f 46f
2:24 7 13 mph 1022.1mb 51f 46f
2:18 7 10 mph 1022mb 51f 46f
2:12 6 11 mph 1021.9mb 51f 47f
2:06 6 11 mph 1021.8mb 51f 46f
2:00 7 13 mph 1021.7mb 51f 46f
1:54 8 13 mph 1021.6mb 51f 46f
1:48 8 14 mph 1021.6mb 51f 47f
1:36 9 14 mph 1021.3mb 51f 47f
1:30 6 10 mph 1021.2mb 51f 47f
1:24 7 14 mph 1021.2mb 51f 47f
1:18 7 15 mph 1021.1mb 51f 47f
1:12 9 14 mph 1021.1mb 51f 47f
1:06 8 13 mph 1021mb 51f 47f
1:00 7 15 mph 1021mb 51f 47f
12:54 9 14 mph 1021mb 51f 48f
12:48 8 15 mph 1021mb 51f 48f
12:36 9 16 mph 1020.9mb 51f 48f
12:30 9 21 mph 1020.9mb 51f 48f
12:24 10 16 mph 1020.8mb 51f 48f
12:18 8 16 mph 1020.8mb 51f 47f
12:12 7 16 mph 1020.7mb 51f 47f
12:06 10 15 mph 1020.7mb 51f 47f
12:00 10 17 mph 1020.6mb 51f 48f
Qua 11/30 11:54 9 14 mph 1020.5mb 51f 47f
11:48 10 16 mph 1020.4mb 51f 48f
11:36 10 17 mph 1020.4mb 51f 48f
11:30 7 17 mph 1020.4mb 51f 48f
11:24 8 18 mph 1020.3mb 51f 47f
11:18 10 17 mph 1020.3mb 51f 48f
11:12 9 17 mph 1020.2mb 51f 48f
11:06 10 23 mph 1020.1mb 51f 48f
11:00 10 15 mph 1020mb 51f 48f
10:54 8 16 mph 1019.9mb 51f 48f
10:48 9 14 mph 1019.9mb 51f 48f
10:36 8 15 mph 1019.9mb 51f 48f
10:30 9 16 mph 1019.8mb 51f 48f
10:24 9 16 mph 1019.8mb 51f 48f
10:18 7 15 mph 1019.8mb 51f 48f
10:12 7 14 mph 1019.8mb 51f 48f
10:06 9 17 mph 1019.7mb 51f 48f
10:00 7 17 mph 1019.7mb 51f 48f
9:36 10 17 mph 1019.6mb 51f 48f
9:30 9 16 mph 1019.6mb 51f 48f
9:24 10 16 mph 1019.6mb 51f 48f
9:18 13 20 mph 1019.5mb 51f 48f
9:12 13 17 mph 1019.6mb 51f 48f
9:06 10 18 mph 1019.5mb 51f 48f
9:00 9 15 mph 1019.5mb 51f 48f
8:54 10 16 mph 1019.4mb 51f 48f
8:48 11 16 mph 1019.3mb 51f 48f
8:36 8 16 mph 1019.2mb 51f 48f
8:30 9 15 mph 1019.2mb 51f 48f
8:24 14 22 mph 1019.2mb 51f 49f
8:18 9 15 mph 1019.2mb 51f 48f
8:12 9 20 mph 1019.2mb 51f 48f
8:06 8 17 mph 1019.2mb 51f 48f
8:00 13 22 mph 1019.1mb 51f 49f
7:54 8 20 mph 1019mb 51f 49f
7:48 9 22 mph 1018.9mb 51f 49f
7:36 8 18 mph 1018.8mb 51f 49f
7:30 9 17 mph 1018.7mb 51f 49f
7:24 11 21 mph 1018.7mb 51f 49f
7:18 10 18 mph 1018.7mb 51f 49f
7:12 13 21 mph 1018.7mb 51f 49f
7:06 10 18 mph 1018.6mb 51f 49f
7:00 9 15 mph 1018.6mb 51f 48f
6:54 9 14 mph 1018.6mb 51f 48f
6:48 10 17 mph 1018.6mb 51f 49f
6:36 7 17 mph 1018.5mb 51f 49f
6:30 9 18 mph 1018.5mb 51f 49f
6:24 6 15 mph 1018.4mb 51f 49f
6:18 8 13 mph 1018.4mb 51f 49f
6:12 6 11 mph 1018.4mb 51f 49f
6:06 8 14 mph 1018.3mb 51f 49f
6:00 6 10 mph 1018.3mb 51f 49f
5:54 8 15 mph 1018.2mb 51f 49f
5:48 7 16 mph 1018.1mb 51f 49f
5:36 8 17 mph 1017.9mb 51f 49f
5:30 7 16 mph 1017.8mb 51f 49f
5:24 8 20 mph 1017.7mb 51f 49f
5:18 11 21 mph 1017.6mb 51f 50f
5:12 10 18 mph 1017.6mb 51f 49f
5:06 10 22 mph 1017.5mb 51f 49f
5:00 7 11 mph 1017.4mb 51f 49f
4:54 9 14 mph 1017.3mb 51f 49f
4:48 9 17 mph 1017.4mb 51f 49f
4:36 10 21 mph 1017.3mb 51f 49f
4:30 14 23 mph 1017.3mb 51f 49f
4:24 10 16 mph 1017.2mb 51f 49f
4:18 10 22 mph 1017.1mb 51f 50f
4:12 9 17 mph 1017mb 51f 50f
4:06 8 14 mph 1017mb 51f 49f
4:00 9 18 mph 1016.9mb 51f 49f
3:54 13 18 mph 1016.8mb 52f 50f
3:48 9 17 mph 1016.8mb 52f 50f
3:36 14 17 mph 1016.7mb 52f 50f
2:36 14 24 mph 1015.8mb 52f 51f
2:30 9 17 mph 1015.8mb 52f 51f
2:24 14 18 mph 1015.7mb 52f 51f
2:18 10 17 mph 1015.6mb 52f 50f
2:12 11 20 mph 1015.5mb 52f 50f
2:06 9 16 mph 1015.4mb 52f 49f
2:00 11 22 mph 1015.2mb 52f 49f
1:54 17 31 mph 1015.2mb 52f 49f
1:48 17 30 mph 1015.1mb 52f 51f
1:36 16 30 mph 1014.9mb 52f 51f
1:30 14 22 mph 1014.7mb 51f 51f
1:24 17 28 mph 1014.6mb 51f 51f
1:18 16 26 mph 1014.6mb 51f 51f
1:12 15 25 mph 1014.5mb 51f 51f
1:06 16 24 mph 1014.4mb 51f 51f
1:00 21 36 mph 1014.2mb 51f 51f
12:54 16 25 mph 1014.2mb 51f 52f
12:48 15 24 mph 1014mb 51f 51f
12:36 15 29 mph 1013.9mb 51f 51f
12:30 18 30 mph 1013.8mb 51f 51f
12:24 10 28 mph 1013.7mb 51f 51f
12:18 14 23 mph 1013.6mb 51f 51f
12:12 15 25 mph 1013.5mb 51f 50f
12:06 15 28 mph 1013.4mb 51f 50f
12:00 14 30 mph 1013.3mb 51f 50f
11:54 15 34 mph 1013.2mb 51f 50f
11:48 16 28 mph 1013.1mb 51f 50f
11:36 16 31 mph 1012.8mb 51f 51f
11:30 17 26 mph 1012.7mb 51f 51f
11:24 21 29 mph 1012.6mb 51f 51f
11:18 17 28 mph 1012.5mb 51f 52f
11:12 16 33 mph 1012.5mb 51f 52f
11:06 15 30 mph 1012.4mb 51f 51f
11:00 10 22 mph 1012.3mb 51f 52f
10:54 11 21 mph 1012.2mb 51f 51f
10:48 13 21 mph 1012.1mb 51f 50f
10:36 14 24 mph 1011.9mb 51f 50f
10:30 15 23 mph 1011.8mb 51f 49f
10:24 13 23 mph 1011.7mb 51f 49f
10:18 11 21 mph 1011.7mb 51f 49f
10:12 13 16 mph 1011.6mb 51f 49f
10:06 14 20 mph 1011.5mb 52f 49f
10:00 9 17 mph 1011.4mb 52f 48f
9:54 10 20 mph 1011.3mb 52f 48f
9:48 8 15 mph 1011.2mb 52f 47f
9:36 10 16 mph 1011.1mb 52f 46f
9:30 10 14 mph 1011mb 52f 46f
9:24 11 17 mph 1010.9mb 52f 46f
9:18 13 18 mph 1010.9mb 52f 47f
9:12 10 20 mph 1010.7mb 51f 46f
9:06 11 18 mph 1010.5mb 51f 46f
9:00 11 20 mph 1010.4mb 51f 46f
8:54 11 18 mph 1010.2mb 51f 46f
8:48 10 14 mph 1010.1mb 51f 46f
8:36 9 17 mph 1009.8mb 51f 46f
8:30 11 18 mph 1009.8mb 51f 46f
8:24 8 13 mph 1009.6mb 51f 46f
8:18 8 10 mph 1009.6mb 51f 47f
8:12 6 11 mph 1009.4mb 51f 46f
8:06 9 14 mph 1009.3mb 51f 46f
8:00 11 16 mph 1009.1mb 51f 46f
7:54 11 15 mph 1009.1mb 51f 46f
7:48 10 14 mph 1008.9mb 51f 47f
7:36 3 6 mph 1008.6mb 51f 46f
7:30 5 9 mph 1008.5mb 51f 46f
7:24 3 9 mph 1008.3mb 51f 45f
7:18 5 9 mph 1008.3mb 51f 45f
7:12 5 9 mph 1008.4mb 51f 46f
7:06 6 9 mph 1008.5mb 51f 44f
7:00 6 10 mph 1008.5mb 51f 44f
6:54 2 7 mph 1008.2mb 52f 45f
6:48 2 6 mph 1008.2mb 52f 45f
6:36 1 2 mph 1008.2mb 52f 45f
6:30  -  2 mph 1008.1mb 52f 44f
6:24  -  5 mph 1008mb 52f 45f
6:18 2 3 mph 1008mb 52f 45f
6:12 2 3 mph 1008mb 52f 45f
6:06 2 7 mph 1008mb 52f 46f
6:00 8 10 mph 1007.9mb 52f 46f
5:54 7 9 mph 1007.9mb 52f 45f
5:48 1 3 mph 1008mb 52f 44f
5:36 1 2 mph 1007.7mb 52f 44f
5:30 1 2 mph 1007.7mb 52f 45f
5:24  -  1 mph 1007.7mb 52f 44f
5:18 3 6 mph 1007.8mb 51f 44f
5:12 2 6 mph 1007.7mb 51f 44f
5:06 6 8 mph 1007.8mb 51f 44f
5:00 6 8 mph 1007.5mb 51f 44f
4:54 3 6 mph 1007.4mb 51f 44f
4:48 2 3 mph 1007.6mb 51f 44f
4:36 2 7 mph 1007.7mb 51f 44f
4:30 6 8 mph 1007.8mb 51f 44f
4:24 2 7 mph 1007.8mb 51f 44f
4:18 5 8 mph 1007.6mb 51f 44f
4:12 3 6 mph 1007.6mb 51f 44f
4:06 2 5 mph 1007.6mb 51f 44f
4:00 1 5 mph 1007.7mb 51f 44f
3:54 3 8 mph 1007.9mb 51f 44f
3:48 6 9 mph 1007.8mb 51f 44f
3:36 6 7 mph 1007.7mb 51f 43f
3:30 5 6 mph 1007.6mb 51f 43f
3:24 5 7 mph 1007.7mb 51f 43f
3:18 5 8 mph 1007.7mb 51f 43f
3:12 3 8 mph 1007.6mb 51f 44f
3:06 6 8 mph 1007.7mb 51f 43f
3:00 3 6 mph 1007.8mb 51f 43f
2:54 6 7 mph 1007.9mb 51f 43f
2:48  -  2 mph 1007.5mb 51f 44f
2:36 5 7 mph 1007.7mb 51f 44f
2:30 5 8 mph 1007.9mb 51f 44f
2:24 3 6 mph 1007.6mb 51f 44f
2:18 5 8 mph 1007.5mb 51f 43f
2:12 5 6 mph 1007.7mb 51f 43f
2:06 5
mph
1007.5mb 51f 43f
2:00 3 5 mph 1007.5mb 51f 43f
1:54 5 6 mph 1007.6mb 51f 43f
1:48 1 3 mph 1007.1mb 51f 43f
1:36 5 6 mph 1007.4mb 51f 44f
1:30 5 6 mph 1007.3mb 51f 43f
1:24 3 5 mph 1007.3mb 51f 44f
1:18 1 2 mph 1007.1mb 51f 44f
1:12 3 5 mph 1007.3mb 51f 44f
1:06 2 3 mph 1007.2mb 51f 44f
1:00 2 5 mph 1007.2mb 51f 44f
12:54 2 3 mph 1007.1mb 51f 44f
12:48 5 6 mph 1007.2mb 51f 45f
12:36 2 7 mph 1007mb 51f 44f
12:30 2 5 mph 1007.2mb 51f 44f
12:24 5 7 mph 1007.2mb 51f 44f
12:18 3 5 mph 1007.1mb 51f 44f
12:12  -  5 mph 1007.3mb 51f 44f
12:06 3 5 mph 1007.4mb 51f 44f
12:00 2 3 mph 1007.5mb 51f 44f
Ter 11/29 11:54 2 3 mph 1007.6mb 51f 45f
11:48 2
mph
1007.8mb 51f 45f
11:36 2 7 mph 1008.2mb 51f 45f
11:30 5 8 mph 1008.1mb 51f 45f
11:24 6 9 mph 1008.2mb 51f 45f
11:18 5 7 mph 1008.2mb 51f 46f
11:12 5 7 mph 1008.2mb 51f 45f
11:06 6 8 mph 1008.3mb 51f 45f
11:00 3 7 mph 1008.2mb 51f 45f
10:54 5 7 mph 1008.3mb 51f 44f
10:48 6 8 mph 1008.5mb 51f 45f
10:36 5 8 mph 1008.3mb 51f 45f
10:30 6 9 mph 1008.5mb 51f 45f
10:24 7 8 mph 1008.6mb 51f 45f
10:18 6 8 mph 1008.4mb 51f 44f
10:12 6 8 mph 1008.3mb 51f 44f
10:06 6 7 mph 1008.7mb 51f 44f
10:00 5 6 mph 1008.7mb 51f 43f